Argentona, Spain
Current Conditions -  °F | °C
As of 12:00 PM on Thursday 23 Oct 2014 (Local Time) from LELL Reporting Station
Clear Clear  
Wind Chill: 68°   Ceiling: Unl
Heat Index: 68°   Visibility: 6mi
Dew Point: 43°   Wind: 3mph
Humidity: 40%   Direction: 250°WSW
Pressure: 30.12"   Gusts: NA
Location:  41.55°N, 2.4°E
Report Text: LELL 231000Z 25003KT 190V290 CAVOK 20/06 Q1020
Loading
Personal Weather Stations






























Interactive Weather Map
Tropical Storm Tracking
New forecast layout! Learn more

10-Day Weather Forecast

Advertisements
Track Severe Weather on mobile